createdAt,value
2023-01-13T00:00:00.660Z,79
2023-01-13T00:15:00.621Z,80
2023-01-13T00:30:00.640Z,80
2023-01-13T00:45:00.702Z,80
2023-01-13T01:00:00.582Z,80
2023-01-13T01:15:00.598Z,81
2023-01-13T01:30:00.585Z,80
2023-01-13T01:45:00.704Z,81
2023-01-13T02:00:00.577Z,81
2023-01-13T02:15:00.578Z,81
2023-01-13T02:30:00.601Z,81
2023-01-13T02:45:00.671Z,81
2023-01-13T03:00:00.575Z,81
2023-01-13T03:15:00.599Z,81
2023-01-13T03:30:00.584Z,81
2023-01-13T03:45:00.634Z,81
2023-01-13T04:00:00.582Z,82
2023-01-13T04:15:00.588Z,82
2023-01-13T04:30:00.610Z,82
2023-01-13T04:45:00.765Z,82
2023-01-13T05:00:00.646Z,82
2023-01-13T05:15:00.620Z,82
2023-01-13T05:30:00.633Z,82
2023-01-13T05:45:00.740Z,83
2023-01-13T06:00:00.598Z,82
2023-01-13T06:15:00.583Z,83
2023-01-13T06:30:00.620Z,84
2023-01-13T06:45:00.685Z,84
2023-01-13T07:00:00.606Z,84
2023-01-13T07:15:00.613Z,83
2023-01-13T07:30:00.395Z,83
2023-01-13T07:45:00.448Z,83
2023-01-13T08:00:02.484Z,83
2023-01-13T08:15:00.380Z,83
2023-01-13T08:30:00.430Z,83
2023-01-13T08:45:00.439Z,83
2023-01-13T09:00:00.385Z,83
2023-01-13T09:15:00.392Z,83
2023-01-13T09:30:00.431Z,83
2023-01-13T09:45:00.467Z,82
2023-01-13T10:00:00.392Z,82
2023-01-13T10:15:00.408Z,82
2023-01-13T10:30:00.431Z,81
2023-01-13T10:45:00.534Z,79
2023-01-13T11:00:00.418Z,79
2023-01-13T11:15:00.398Z,79
2023-01-13T11:30:00.399Z,79
2023-01-13T11:45:00.454Z,77
2023-01-13T12:00:00.396Z,74
2023-01-13T12:15:00.467Z,72
2023-01-13T12:30:00.389Z,70
2023-01-13T12:45:00.498Z,71
2023-01-13T13:00:00.403Z,72
2023-01-13T13:15:03.524Z,70
2023-01-13T13:30:00.418Z,70
2023-01-13T13:45:00.494Z,71
2023-01-13T14:00:00.382Z,70
2023-01-13T14:15:00.362Z,71
2023-01-13T14:30:00.479Z,71
2023-01-13T14:45:00.419Z,71
2023-01-13T15:00:00.313Z,72
2023-01-13T15:15:00.352Z,72
2023-01-13T15:30:00.416Z,72
2023-01-13T15:45:00.346Z,73
2023-01-13T16:00:00.305Z,73
2023-01-13T16:15:00.300Z,73
2023-01-13T16:30:00.330Z,74
2023-01-13T16:45:00.436Z,74
2023-01-13T17:00:00.571Z,74
2023-01-13T17:15:00.648Z,75
2023-01-13T17:30:00.632Z,76
2023-01-13T17:45:00.614Z,76
2023-01-13T18:00:00.683Z,77
2023-01-13T18:15:00.603Z,77
2023-01-13T18:30:00.647Z,77
2023-01-13T18:45:00.653Z,77
2023-01-13T19:00:00.705Z,77
2023-01-13T19:15:00.673Z,78
2023-01-13T19:30:02.737Z,79
2023-01-13T19:45:00.629Z,80
2023-01-13T20:00:00.674Z,81
2023-01-13T20:15:00.682Z,80
2023-01-13T20:30:00.792Z,81
2023-01-13T20:45:00.721Z,80
2023-01-13T21:00:00.738Z,81
2023-01-13T21:15:00.701Z,80
2023-01-13T21:30:00.835Z,80
2023-01-13T21:45:00.651Z,80
2023-01-13T22:00:00.645Z,80
2023-01-13T22:15:00.632Z,80
2023-01-13T22:30:00.677Z,81
2023-01-13T22:45:00.641Z,81
2023-01-13T23:00:00.627Z,81
2023-01-13T23:15:00.638Z,81
2023-01-13T23:30:00.677Z,81
2023-01-13T23:45:00.591Z,82
